createdAt,value
2023-03-23T15:58:54.062Z,93.38
2023-03-23T16:01:27.151Z,90.57
2023-03-23T16:04:09.510Z,89.69
2023-03-23T16:06:39.150Z,89.55
2023-03-23T16:09:12.086Z,88.62
2023-03-23T16:11:40.520Z,87.36
2023-03-23T16:14:08.983Z,85.21
2023-03-23T16:16:51.224Z,86.50
2023-03-23T16:19:25.186Z,85.97
2023-03-23T16:21:53.603Z,86.50
2023-03-23T16:24:21.986Z,86.24
2023-03-23T16:26:50.573Z,85.91
2023-03-23T16:29:39.860Z,86.62
2023-03-23T16:32:07.775Z,85.24
2023-03-23T16:34:37.057Z,84.27
2023-03-23T16:37:05.791Z,84.22
2023-03-23T16:39:34.676Z,85.33
2023-03-23T16:42:03.105Z,86.77
2023-03-23T16:44:31.636Z,86.78
2023-03-23T16:47:00.143Z,86.20
2023-03-23T16:49:28.742Z,86.89
2023-03-23T16:51:57.246Z,87.11
2023-03-23T16:54:25.739Z,85.99
2023-03-23T16:56:54.187Z,85.12
2023-03-23T16:59:22.551Z,85.26
2023-03-23T17:01:51.062Z,85.75
2023-03-23T17:04:19.527Z,85.29
2023-03-23T17:06:47.907Z,84.39
2023-03-23T17:09:16.551Z,84.81
2023-03-23T17:11:44.979Z,85.16
2023-03-23T17:14:13.458Z,85.45
2023-03-23T17:16:42.068Z,86.21
2023-03-23T17:19:10.586Z,87.47
2023-03-23T17:21:38.940Z,88.27
2023-03-23T17:24:07.818Z,88.67
2023-03-23T17:26:36.968Z,88.92
2023-03-23T17:29:05.842Z,88.86
2023-03-23T17:31:34.407Z,89.03
2023-03-23T17:34:03.300Z,89.26
2023-03-23T17:36:31.945Z,85.87
2023-03-23T17:39:00.342Z,84.88
2023-03-23T17:41:28.800Z,85.78
2023-03-23T17:43:57.172Z,88.22
2023-03-23T17:46:25.936Z,86.68
2023-03-23T17:48:54.647Z,83.62
2023-03-23T17:51:23.104Z,82.98
2023-03-23T17:53:51.510Z,82.52
2023-03-23T17:56:20.128Z,82.14
2023-03-23T17:58:48.494Z,82.10
2023-03-23T18:01:17.010Z,83.36
2023-03-23T18:03:45.895Z,87.49
2023-03-23T18:06:15.049Z,88.59
2023-03-23T18:08:43.620Z,89.06
2023-03-23T18:11:12.289Z,89.12
2023-03-23T18:13:41.563Z,89.29
2023-03-23T18:16:10.685Z,89.22
2023-03-23T18:18:39.209Z,86.84
2023-03-23T18:21:10.499Z,86.08
2023-03-23T18:23:53.019Z,87.81
2023-03-23T18:26:27.011Z,90.05
2023-03-23T18:28:55.437Z,90.34
2023-03-23T18:31:24.111Z,89.39
2023-03-23T18:33:54.963Z,89.02
2023-03-23T18:36:26.192Z,89.04
2023-03-23T18:38:58.256Z,90.39
2023-03-23T18:41:26.990Z,91.16
2023-03-23T18:43:57.138Z,91.17
2023-03-23T18:46:26.942Z,91.14
2023-03-23T18:48:55.893Z,90.59
2023-03-23T18:51:26.932Z,91.31
2023-03-23T18:53:55.696Z,92.38
2023-03-23T18:56:24.162Z,93.82
2023-03-23T18:58:54.374Z,94.35
2023-03-23T19:01:23.183Z,94.00
2023-03-23T19:03:51.639Z,94.04
2023-03-23T19:06:23.538Z,94.13
2023-03-23T19:08:53.342Z,94.32
2023-03-23T19:11:23.540Z,93.57
2023-03-23T19:14:01.624Z,94.00
2023-03-23T19:16:36.592Z,94.73
2023-03-23T19:19:07.125Z,95.23
2023-03-23T19:21:36.066Z,95.21
2023-03-23T19:24:05.123Z,95.38
2023-03-23T19:26:45.021Z,95.07
2023-03-23T19:29:25.456Z,95.55
2023-03-23T19:31:56.857Z,95.71
2023-03-23T19:34:27.617Z,96.22
2023-03-23T19:37:05.291Z,95.89
2023-03-23T19:39:36.327Z,95.76
2023-03-23T19:42:05.192Z,95.54
2023-03-23T19:47:02.928Z,95.54
2023-03-23T19:49:31.523Z,95.81
2023-03-23T19:52:09.005Z,95.76
2023-03-23T19:54:39.694Z,95.63
2023-03-23T19:57:09.706Z,95.46
2023-03-23T19:59:39.563Z,96.14
2023-03-23T20:02:08.774Z,96.96
2023-03-23T20:04:37.476Z,96.91
2023-03-23T20:07:07.728Z,96.78
2023-03-23T20:09:36.769Z,96.70
2023-03-23T20:12:06.306Z,96.19
2023-03-23T20:14:36.884Z,95.49
2023-03-23T20:17:06.168Z,95.29
2023-03-23T20:19:36.458Z,94.32
2023-03-23T20:22:05.446Z,93.39
2023-03-23T20:24:33.815Z,92.55
2023-03-23T20:27:04.109Z,92.68
2023-03-23T20:29:34.987Z,91.54
2023-03-23T20:32:03.495Z,91.70
2023-03-23T20:34:32.024Z,92.23
2023-03-23T20:37:02.844Z,92.19
2023-03-23T20:39:33.564Z,92.41
2023-03-23T20:42:05.319Z,90.62
2023-03-23T20:44:36.952Z,91.01
2023-03-23T20:47:05.486Z,91.39
2023-03-23T20:49:36.103Z,91.62
2023-03-23T20:52:07.121Z,92.44
2023-03-23T20:54:36.485Z,93.09
2023-03-23T20:57:05.486Z,92.78
2023-03-23T20:59:34.096Z,92.65
2023-03-23T21:02:02.563Z,93.01
2023-03-23T21:04:31.130Z,92.35
2023-03-23T21:07:01.413Z,92.05
2023-03-23T21:09:29.926Z,92.58
2023-03-23T21:11:58.254Z,92.86
2023-03-23T21:14:27.847Z,93.44
2023-03-23T21:16:56.353Z,93.61
2023-03-23T21:19:24.933Z,94.25
2023-03-23T21:21:56.580Z,94.78
2023-03-23T21:24:30.540Z,95.34
2023-03-23T21:27:01.813Z,95.95
2023-03-23T21:29:30.325Z,96.46
2023-03-23T21:34:30.476Z,97.78
2023-03-23T21:36:58.870Z,97.53
2023-03-23T21:39:27.313Z,97.68
2023-03-23T21:41:55.818Z,98.17
2023-03-23T21:44:24.582Z,98.11
2023-03-23T21:46:53.198Z,97.88
2023-03-23T21:49:21.553Z,97.48
2023-03-23T21:51:50.988Z,97.38
2023-03-23T21:54:19.400Z,97.48
2023-03-23T21:56:48.457Z,97.26
2023-03-23T21:59:17.641Z,96.61
2023-03-23T22:01:46.046Z,97.06
2023-03-23T22:04:14.445Z,97.51
2023-03-23T22:06:43.367Z,97.89
2023-03-23T22:09:12.357Z,97.75
2023-03-23T22:11:41.881Z,97.99
2023-03-23T22:14:10.341Z,98.38
2023-03-23T22:16:38.942Z,98.35
2023-03-23T22:19:07.598Z,98.53
2023-03-23T22:21:37.517Z,98.75
2023-03-23T22:24:06.371Z,98.87
2023-03-23T22:26:34.780Z,99.01
2023-03-23T22:29:04.389Z,99.40
2023-03-23T22:31:35.233Z,99.41
2023-03-23T22:34:04.150Z,99.20
2023-03-23T22:39:02.168Z,97.25
2023-03-23T22:41:34.967Z,97.71
2023-03-23T22:44:04.158Z,97.97
2023-03-23T22:46:33.163Z,99.56
2023-03-23T22:49:01.651Z,99.65
2023-03-23T22:51:30.033Z,100.00
2023-03-23T22:53:58.709Z,100.00
2023-03-23T22:56:27.107Z,100.00
2023-03-23T22:58:55.848Z,100.00
2023-03-23T23:01:24.829Z,100.00
2023-03-23T23:03:53.950Z,100.00
2023-03-23T23:06:22.839Z,100.00
2023-03-23T23:08:52.731Z,100.00
2023-03-23T23:11:23.501Z,99.46
2023-03-23T23:13:52.648Z,97.71
2023-03-23T23:16:23.052Z,98.67
2023-03-23T23:18:51.774Z,98.17
2023-03-23T23:21:23.737Z,98.04
2023-03-23T23:23:52.683Z,97.30
2023-03-23T23:26:21.835Z,98.60
2023-03-23T23:28:50.907Z,98.09
2023-03-23T23:31:30.070Z,99.85
2023-03-23T23:34:00.627Z,100.00
2023-03-23T23:36:30.731Z,100.00
2023-03-23T23:39:01.650Z,100.00
2023-03-23T23:41:31.691Z,100.00
2023-03-23T23:44:00.975Z,100.00
2023-03-23T23:46:31.838Z,100.00
2023-03-23T23:49:01.962Z,100.00
2023-03-23T23:51:31.130Z,100.00
2023-03-23T23:53:59.777Z,100.00
2023-03-23T23:56:29.717Z,100.00
2023-03-23T23:58:59.100Z,100.00
